Time;durP1;ratioP1;P1;durP2;ratioP2;P2;SDS_P1;SDS_P2;PMS_P1;PMS_P2;Temp;Humidity;BMP_temperature;BMP_pressure;BME280_temperature;BME280_humidity;BME280_pressure;Samples;Min_cycle;Max_cycle;Signal;HPM_P1;HPM_P2
2022/02/25 00:01:00;;;;;;;3.10;1.43;;;7.60;99.60;;;;;;5110959;28;20478;-49
2022/02/25 00:03:26;;;;;;;2.20;1.33;;;7.50;99.40;;;;;;5111007;28;20502;-50
2022/02/25 00:05:53;;;;;;;2.47;1.63;;;7.40;99.40;;;;;;5110936;28;20462;-50
2022/02/25 00:08:21;;;;;;;5.33;1.57;;;7.30;99.50;;;;;;5110715;28;20452;-49
2022/02/25 00:10:47;;;;;;;1.70;1.40;;;7.30;99.50;;;;;;5110585;28;20481;-49
2022/02/25 00:13:14;;;;;;;1.97;1.50;;;7.20;99.60;;;;;;5111029;28;20878;-49
2022/02/25 00:15:40;;;;;;;1.60;1.10;;;7.20;99.40;;;;;;5110967;28;20433;-48
2022/02/25 00:18:07;;;;;;;1.93;1.33;;;6.50;99.10;;;;;;5110884;28;20994;-49
2022/02/25 00:20:34;;;;;;;2.00;1.67;;;7.20;99.60;;;;;;5110496;28;20435;-49
2022/02/25 00:23:01;;;;;;;4.17;1.80;;;7.20;99.50;;;;;;5110934;28;20417;-49
2022/02/25 00:25:30;;;;;;;3.17;1.53;;;7.20;99.40;;;;;;5110894;28;20900;-49
2022/02/25 00:27:56;;;;;;;3.20;1.47;;;7.20;99.20;;;;;;5110499;28;20458;-49
2022/02/25 00:30:23;;;;;;;2.60;1.20;;;7.10;99.10;;;;;;5110284;28;20484;-49
2022/02/25 00:32:49;;;;;;;2.97;1.60;;;7.20;99.30;;;;;;5110793;28;20764;-49
2022/02/25 00:35:16;;;;;;;2.70;1.60;;;7.30;99.40;;;;;;5110820;28;20427;-49
2022/02/25 00:37:43;;;;;;;2.23;1.33;;;7.20;99.50;;;;;;5110810;28;20456;-49
2022/02/25 00:40:10;;;;;;;4.20;1.40;;;7.20;99.40;;;;;;5111806;28;20419;-48
2022/02/25 00:42:39;;;;;;;2.53;1.50;;;7.20;99.30;;;;;;5114474;28;20478;-49
2022/02/25 00:45:07;;;;;;;3.17;1.50;;;7.20;99.40;;;;;;5114508;28;20437;-48
2022/02/25 00:47:34;;;;;;;1.77;1.43;;;7.20;99.20;;;;;;5114170;28;20445;-49
2022/02/25 00:50:00;;;;;;;5.00;1.37;;;7.20;99.20;;;;;;5113794;28;20514;-49
2022/02/25 00:52:28;;;;;;;5.00;1.63;;;7.20;99.20;;;;;;5114112;28;20465;-50
2022/02/25 00:54:54;;;;;;;1.97;1.50;;;7.20;99.00;;;;;;5114390;28;20442;-50
2022/02/25 00:57:21;;;;;;;1.80;1.40;;;7.20;99.00;;;;;;5114295;28;20472;-49
2022/02/25 00:59:49;;;;;;;3.37;2.27;;;7.20;98.70;;;;;;5114269;28;20405;-49
2022/02/25 01:02:15;;;;;;;2.07;1.60;;;7.20;98.70;;;;;;5114539;28;20403;-50
2022/02/25 01:04:42;;;;;;;3.13;1.40;;;7.00;98.60;;;;;;5114159;28;20478;-49
2022/02/25 01:07:09;;;;;;;2.77;2.00;;;7.20;98.90;;;;;;5114094;28;20785;-50
2022/02/25 01:09:35;;;;;;;3.27;1.63;;;7.20;98.40;;;;;;5113615;28;20917;-49
2022/02/25 01:12:03;;;;;;;2.60;1.37;;;7.20;98.40;;;;;;5113895;28;20929;-52
2022/02/25 01:14:30;;;;;;;5.07;1.50;;;7.20;98.40;;;;;;5113928;28;20447;-49
2022/02/25 01:16:57;;;;;;;2.23;1.30;;;7.20;98.40;;;;;;5114213;28;20477;-50
2022/02/25 01:19:24;;;;;;;2.83;1.80;;;7.20;98.10;;;;;;5113674;28;20445;-48
2022/02/25 01:21:51;;;;;;;2.40;1.37;;;7.10;97.90;;;;;;5113730;28;20499;-49
2022/02/25 01:24:18;;;;;;;3.53;1.20;;;7.10;98.20;;;;;;5113860;28;20470;-52
2022/02/25 01:26:44;;;;;;;3.00;1.50;;;7.10;98.00;;;;;;5095300;28;20563;-49
2022/02/25 01:29:11;;;;;;;2.80;1.30;;;7.10;98.10;;;;;;5113182;28;20514;-49
2022/02/25 01:31:38;;;;;;;2.90;1.20;;;7.10;98.00;;;;;;5113678;28;20436;-48
2022/02/25 01:34:06;;;;;;;2.60;1.53;;;6.90;97.90;;;;;;5113608;28;20434;-49
2022/02/25 01:36:33;;;;;;;5.73;1.50;;;7.00;98.00;;;;;;5113415;28;20436;-49
2022/02/25 01:39:02;;;;;;;3.60;1.90;;;7.10;98.00;;;;;;5113010;28;20508;-48
2022/02/25 01:41:30;;;;;;;1.60;1.10;;;7.00;98.00;;;;;;5113418;28;20846;-49
2022/02/25 01:44:14;;;;;;;3.00;1.50;;;7.10;98.10;;;;;;5095045;28;20464;-50
2022/02/25 01:46:41;;;;;;;4.53;1.67;;;7.10;98.30;;;;;;5113351;28;20527;-49
2022/02/25 01:49:09;;;;;;;6.27;1.73;;;7.10;98.20;;;;;;5112902;28;20475;-49
2022/02/25 01:51:37;;;;;;;5.03;1.87;;;7.20;98.30;;;;;;5112236;28;20410;-49
2022/02/25 01:54:03;;;;;;;4.27;1.40;;;7.30;98.30;;;;;;5113665;28;20440;-49
2022/02/25 01:56:30;;;;;;;2.53;1.63;;;7.20;98.30;;;;;;5113571;28;20472;-51
2022/02/25 01:58:57;;;;;;;3.10;1.50;;;7.10;98.20;;;;;;5112825;28;20441;-49
2022/02/25 02:01:23;;;;;;;3.70;2.13;;;7.10;98.10;;;;;;5113064;28;20409;-49
2022/02/25 02:03:53;;;;;;;4.97;1.43;;;7.10;98.20;;;;;;5113176;28;20439;-49
2022/02/25 02:06:21;;;;;;;4.40;1.70;;;7.10;98.30;;;;;;5113154;28;20425;-49
2022/02/25 02:08:48;;;;;;;5.07;1.50;;;7.10;98.30;;;;;;5112599;28;20874;-49
2022/02/25 02:11:27;;;;;;;8.97;2.10;;;7.20;98.50;;;;;;5112898;28;20434;-48
2022/02/25 02:13:54;;;;;;;7.30;1.77;;;7.20;98.40;;;;;;5112831;28;20442;-49
2022/02/25 02:16:21;;;;;;;3.50;1.70;;;7.20;98.40;;;;;;5112728;28;20481;-49
2022/02/25 02:18:48;;;;;;;4.97;1.93;;;7.20;98.40;;;;;;5112678;28;20445;-50
2022/02/25 02:21:14;;;;;;;3.10;1.57;;;7.10;98.30;;;;;;5113125;28;20449;-49
2022/02/25 02:23:42;;;;;;;8.80;2.03;;;6.90;98.30;;;;;;5112638;28;20414;-49
2022/02/25 02:26:09;;;;;;;2.53;1.70;;;7.10;98.40;;;;;;5112758;28;20410;-49
2022/02/25 02:28:36;;;;;;;4.43;1.83;;;7.10;98.40;;;;;;5112380;28;20508;-48
2022/02/25 02:31:02;;;;;;;4.67;2.40;;;7.00;98.50;;;;;;5112545;28;20595;-50
2022/02/25 02:33:29;;;;;;;2.40;1.77;;;7.00;98.50;;;;;;5112374;28;20407;-50
2022/02/25 02:35:55;;;;;;;4.27;1.70;;;7.00;98.50;;;;;;5112122;28;20415;-49
2022/02/25 02:38:22;;;;;;;3.33;1.80;;;6.90;98.50;;;;;;5112176;28;20409;-50
2022/02/25 02:40:50;;;;;;;5.03;1.70;;;6.90;98.70;;;;;;5112161;28;20409;-50
2022/02/25 02:43:17;;;;;;;3.70;2.20;;;6.90;98.80;;;;;;5112396;28;20405;-50
2022/02/25 02:45:43;;;;;;;4.40;2.37;;;6.80;98.80;;;;;;5112355;28;20861;-49
2022/02/25 02:48:10;;;;;;;7.93;2.10;;;6.80;98.90;;;;;;5112239;28;20519;-49
2022/02/25 02:50:36;;;;;;;6.27;1.80;;;6.70;98.90;;;;;;5111976;28;20900;-48
2022/02/25 02:53:03;;;;;;;9.13;2.70;;;6.60;98.90;;;;;;5112422;28;20414;-48
2022/02/25 02:55:30;;;;;;;7.97;2.10;;;6.50;99.00;;;;;;5112386;28;20412;-49
2022/02/25 02:57:58;;;;;;;5.73;2.37;;;6.50;99.10;;;;;;5112032;28;20462;-49
2022/02/25 03:00:25;;;;;;;7.40;2.30;;;6.40;99.20;;;;;;5111389;28;20405;-50
2022/02/25 03:02:51;;;;;;;8.50;2.80;;;6.40;99.30;;;;;;5111746;28;20411;-49
2022/02/25 03:05:18;;;;;;;3.57;1.77;;;6.40;99.30;;;;;;5111444;28;20448;-49
2022/02/25 03:07:46;;;;;;;10.50;2.80;;;6.30;99.40;;;;;;5111764;28;20514;-49
2022/02/25 03:10:14;;;;;;;4.50;2.47;;;6.20;99.50;;;;;;5111372;28;20865;-48
2022/02/25 03:12:41;;;;;;;4.10;2.70;;;6.30;99.60;;;;;;5111568;28;20407;-48
2022/02/25 03:15:10;;;;;;;4.40;2.10;;;6.30;99.60;;;;;;5111564;28;20439;-49
2022/02/25 03:17:37;;;;;;;6.90;2.40;;;6.30;99.70;;;;;;5093115;28;20488;-49
2022/02/25 03:20:05;;;;;;;8.60;2.20;;;6.30;99.60;;;;;;5092858;28;20768;-49
2022/02/25 03:22:32;;;;;;;5.40;2.00;;;6.40;99.70;;;;;;5111715;28;20533;-49
2022/02/25 03:25:00;;;;;;;6.33;2.10;;;6.40;99.70;;;;;;5111521;28;20415;-49
2022/02/25 03:27:28;;;;;;;7.63;2.57;;;6.40;99.70;;;;;;5111531;28;20499;-48
2022/02/25 03:29:55;;;;;;;5.60;2.20;;;6.40;99.80;;;;;;5110980;28;20465;-49
2022/02/25 03:32:24;;;;;;;4.80;2.50;;;6.40;99.80;;;;;;5093184;28;20469;-50
2022/02/25 03:34:51;;;;;;;6.97;3.53;;;6.30;99.80;;;;;;5111374;28;20908;-50
2022/02/25 03:37:18;;;;;;;4.80;2.37;;;6.20;99.70;;;;;;5111357;28;20445;-49
2022/02/25 03:39:45;;;;;;;4.80;2.60;;;6.20;99.90;;;;;;5111568;28;20407;-48
2022/02/25 03:42:12;;;;;;;8.13;2.50;;;6.10;99.90;;;;;;5111742;28;20403;-50
2022/02/25 03:44:38;;;;;;;8.03;2.90;;;6.10;99.90;;;;;;5111217;28;20474;-49
2022/02/25 03:47:06;;;;;;;9.10;2.70;;;6.10;99.90;;;;;;5111185;28;20431;-49
2022/02/25 03:49:34;;;;;;;9.00;2.50;;;6.10;99.90;;;;;;5110720;28;20481;-49
2022/02/25 03:52:00;;;;;;;7.80;3.10;;;6.10;99.90;;;;;;5111185;28;20407;-48
2022/02/25 03:54:27;;;;;;;4.37;1.83;;;6.00;99.90;;;;;;5111090;28;20738;-50
2022/02/25 03:56:53;;;;;;;10.50;3.00;;;6.00;99.90;;;;;;5092687;28;20458;-48
2022/02/25 03:59:20;;;;;;;7.70;2.50;;;6.00;99.90;;;;;;5110991;28;20799;-49
2022/02/25 04:01:52;;;;;;;6.40;2.50;;;6.00;99.90;;;;;;5111178;28;20436;-49
2022/02/25 04:04:19;;;;;;;10.07;2.33;;;5.90;99.90;;;;;;5111165;28;20845;-49
2022/02/25 04:06:46;;;;;;;10.60;2.53;;;5.90;99.90;;;;;;5111002;28;20444;-49
2022/02/25 04:09:16;;;;;;;10.47;3.77;;;5.80;99.90;;;;;;5092659;28;20448;-50
2022/02/25 04:11:43;;;;;;;4.40;2.60;;;5.80;99.90;;;;;;5111006;28;20437;-49
2022/02/25 04:14:10;;;;;;;6.33;2.10;;;5.70;99.90;;;;;;5111221;28;20437;-49
2022/02/25 04:16:36;;;;;;;6.73;2.60;;;5.70;99.90;;;;;;5114908;28;20440;-48
2022/02/25 04:19:04;;;;;;;10.03;2.40;;;5.70;99.90;;;;;;5114688;28;20431;-48
2022/02/25 04:21:31;;;;;;;12.53;3.13;;;5.70;99.90;;;;;;5114910;28;20431;-48
2022/02/25 04:23:59;;;;;;;6.23;2.90;;;5.70;99.90;;;;;;5114818;28;20438;-48
2022/02/25 04:26:25;;;;;;;7.70;2.80;;;5.70;99.90;;;;;;5114707;28;20935;-49
2022/02/25 04:28:52;;;;;;;10.93;2.90;;;5.60;99.90;;;;;;5114534;28;20421;-50
2022/02/25 04:31:19;;;;;;;7.60;3.03;;;5.60;99.90;;;;;;5114707;28;20483;-50
2022/02/25 04:33:46;;;;;;;10.20;3.50;;;5.60;99.90;;;;;;5114426;28;20403;-49
2022/02/25 04:36:13;;;;;;;13.37;3.00;;;5.60;99.90;;;;;;5114645;28;20433;-48
2022/02/25 04:38:40;;;;;;;7.77;3.27;;;5.50;99.90;;;;;;5114394;28;20501;-48
2022/02/25 04:41:08;;;;;;;6.03;2.53;;;5.50;99.90;;;;;;5114660;28;20455;-48
2022/02/25 04:43:35;;;;;;;7.53;2.80;;;5.50;99.90;;;;;;5096097;28;20423;-48
2022/02/25 04:46:01;;;;;;;6.03;3.03;;;5.50;99.90;;;;;;5114428;28;20440;-49
2022/02/25 04:48:28;;;;;;;6.33;2.87;;;5.50;99.90;;;;;;5114196;28;20778;-49
2022/02/25 04:50:55;;;;;;;4.20;2.70;;;5.60;99.90;;;;;;5114466;28;20852;-49
2022/02/25 04:53:22;;;;;;;4.50;3.33;;;5.60;99.90;;;;;;5114357;28;20411;-49
2022/02/25 04:55:48;;;;;;;9.60;4.57;;;5.60;99.90;;;;;;5114451;28;20444;-49
2022/02/25 04:58:18;;;;;;;3.90;2.80;;;5.60;99.90;;;;;;5137350;22;20556;-43
2022/02/25 05:00:45;;;;;;;9.37;2.70;;;5.60;99.90;;;;;;5116081;28;20445;-42
2022/02/25 05:03:12;;;;;;;7.43;2.87;;;5.60;99.90;;;;;;5115435;28;20433;-43
2022/02/25 05:05:38;;;;;;;8.87;2.80;;;5.60;99.90;;;;;;5115192;28;20478;-43
2022/02/25 05:08:05;;;;;;;10.80;2.67;;;5.50;99.90;;;;;;5114753;28;20453;-44
2022/02/25 05:10:32;;;;;;;6.30;3.10;;;5.50;99.90;;;;;;5114435;28;20532;-42
2022/02/25 05:12:58;;;;;;;9.57;3.23;;;5.50;99.90;;;;;;5114651;28;20281;-43
2022/02/25 05:20:54;;;;;;;6.53;2.90;;;5.40;99.90;;;;;;5072821;28;20440;-43
2022/02/25 05:23:21;;;;;;;4.53;2.50;;;5.40;99.90;;;;;;5114381;28;20757;-44
2022/02/25 05:25:48;;;;;;;7.13;3.03;;;5.40;99.90;;;;;;5114966;28;20774;-43
2022/02/25 05:28:14;;;;;;;8.63;2.97;;;5.40;99.90;;;;;;5114325;28;20429;-43
2022/02/25 05:30:42;;;;;;;9.60;3.73;;;5.40;99.90;;;;;;5114140;28;20449;-44
2022/02/25 05:33:09;;;;;;;7.65;3.50;;;5.30;99.90;;;;;;5114285;28;20464;-43
2022/02/25 05:35:36;;;;;;;7.17;3.07;;;5.30;99.90;;;;;;5114387;28;20213;-45
2022/02/25 05:38:03;;;;;;;5.97;2.90;;;5.30;99.90;;;;;;5114327;28;20850;-43
2022/02/25 05:40:30;;;;;;;8.20;3.20;;;5.30;99.90;;;;;;5113853;28;20202;-43
2022/02/25 05:42:57;;;;;;;6.20;3.10;;;5.20;99.90;;;;;;5114068;28;20403;-43
2022/02/25 05:45:23;;;;;;;9.33;3.67;;;5.20;99.90;;;;;;5114202;28;20404;-43
2022/02/25 05:47:51;;;;;;;4.77;3.53;;;5.20;99.90;;;;;;5114311;28;20455;-45
2022/02/25 05:50:19;;;;;;;9.03;3.20;;;5.20;99.90;;;;;;5113635;28;20795;-43
2022/02/25 05:52:47;;;;;;;12.57;5.10;;;5.20;99.90;;;;;;5113938;28;20843;-42
2022/02/25 05:55:15;;;;;;;10.40;5.32;;;5.20;99.90;;;;;;5113778;28;20428;-42
2022/02/25 05:57:44;;;;;;;6.00;3.83;;;5.20;99.90;;;;;;5114245;28;20218;-43
2022/02/25 06:00:13;;;;;;;10.23;4.00;;;5.10;99.90;;;;;;5113433;28;20443;-44
2022/02/25 06:02:40;;;;;;;8.25;3.03;;;5.10;99.90;;;;;;5114160;28;20498;-44
2022/02/25 06:05:09;;;;;;;6.47;3.60;;;5.10;99.90;;;;;;5113586;28;20253;-43
2022/02/25 06:07:35;;;;;;;5.90;3.10;;;5.10;99.90;;;;;;5113630;28;20821;-44
2022/02/25 06:10:02;;;;;;;13.55;3.47;;;5.10;99.90;;;;;;5113278;28;20535;-43
2022/02/25 06:12:30;;;;;;;7.37;2.83;;;5.00;99.90;;;;;;5113557;28;20209;-45
2022/02/25 06:14:56;;;;;;;4.53;3.03;;;4.90;99.90;;;;;;5113225;28;20421;-43
2022/02/25 06:17:23;;;;;;;9.57;3.40;;;5.10;99.90;;;;;;5113223;28;20236;-45
2022/02/25 06:19:50;;;;;;;9.50;3.67;;;4.90;99.90;;;;;;5112993;28;20439;-42
2022/02/25 06:22:18;;;;;;;11.27;4.10;;;5.00;99.90;;;;;;5113245;28;20623;-43
2022/02/25 06:24:45;;;;;;;12.77;4.13;;;5.00;99.90;;;;;;5114226;28;20460;-44
2022/02/25 06:27:11;;;;;;;17.00;5.50;;;5.00;99.90;;;;;;5113265;28;20433;-45
2022/02/25 06:29:38;;;;;;;11.85;4.28;;;5.00;99.90;;;;;;5112899;28;20774;-42
2022/02/25 06:32:05;;;;;;;8.07;4.22;;;5.00;99.90;;;;;;5113733;28;20225;-43
2022/02/25 06:34:32;;;;;;;8.95;4.28;;;5.00;99.90;;;;;;5114264;28;20648;-45
2022/02/25 06:36:58;;;;;;;12.07;4.00;;;5.10;99.90;;;;;;5113335;28;20242;-44
2022/02/25 06:39:26;;;;;;;11.77;4.28;;;5.10;99.90;;;;;;5112076;28;20211;-43
2022/02/25 06:41:53;;;;;;;6.73;4.07;;;5.20;99.90;;;;;;5094366;28;20209;-43
2022/02/25 06:44:19;;;;;;;9.35;3.67;;;5.30;99.90;;;;;;5112752;28;20544;-47
2022/02/25 06:46:46;;;;;;;7.35;3.30;;;5.40;99.90;;;;;;5112511;28;20215;-45
2022/02/25 06:49:13;;;;;;;11.50;4.20;;;5.50;99.90;;;;;;5112374;28;20295;-43
2022/02/25 06:51:40;;;;;;;9.77;5.77;;;5.60;99.90;;;;;;5112313;28;20451;-45
2022/02/25 06:54:07;;;;;;;6.57;4.50;;;5.70;99.90;;;;;;5112676;28;20432;-44
2022/02/25 06:56:35;;;;;;;9.70;4.03;;;5.80;99.90;;;;;;5112190;28;20464;-43
2022/02/25 06:59:01;;;;;;;11.40;3.80;;;5.80;99.90;;;;;;5112010;28;20425;-42
2022/02/25 07:01:28;;;;;;;9.90;4.17;;;5.90;99.90;;;;;;5112138;28;20916;-45
2022/02/25 07:03:55;;;;;;;12.27;4.27;;;5.90;99.90;;;;;;5112290;28;20429;-44
2022/02/25 07:06:24;;;;;;;7.33;4.23;;;5.90;99.90;;;;;;5112484;28;20444;-44
2022/02/25 07:08:51;;;;;;;7.50;3.80;;;5.90;99.90;;;;;;5111608;28;20500;-46
2022/02/25 07:11:18;;;;;;;8.23;3.73;;;6.00;99.90;;;;;;5112593;28;20979;-44
2022/02/25 07:13:46;;;;;;;5.90;3.20;;;6.00;99.90;;;;;;5112201;28;20407;-42
2022/02/25 07:16:12;;;;;;;6.37;3.60;;;6.10;99.90;;;;;;5112432;28;20415;-44
2022/02/25 07:18:39;;;;;;;7.53;4.33;;;6.20;99.90;;;;;;5111737;28;20408;-44
2022/02/25 07:21:06;;;;;;;6.27;4.20;;;6.20;99.90;;;;;;5112658;28;20527;-44
2022/02/25 07:23:32;;;;;;;7.83;3.30;;;6.20;99.90;;;;;;5112668;28;21105;-43
2022/02/25 07:25:59;;;;;;;8.87;4.30;;;6.30;99.90;;;;;;5112350;28;20404;-44
2022/02/25 07:28:25;;;;;;;14.00;3.90;;;6.30;99.90;;;;;;5112496;28;20431;-50
2022/02/25 07:30:53;;;;;;;8.20;3.67;;;6.40;99.90;;;;;;5112444;28;20477;-42
2022/02/25 07:33:21;;;;;;;9.03;3.47;;;6.40;99.90;;;;;;5111745;28;20446;-43
2022/02/25 07:35:48;;;;;;;5.30;3.43;;;6.50;99.90;;;;;;5112607;28;20476;-43
2022/02/25 07:38:15;;;;;;;7.80;3.53;;;6.50;99.80;;;;;;5112240;28;20860;-42
2022/02/25 07:40:42;;;;;;;6.40;3.43;;;6.60;99.60;;;;;;5111543;28;20440;-44
2022/02/25 07:43:12;;;;;;;8.57;3.83;;;6.60;99.50;;;;;;5112082;28;20425;-43
2022/02/25 07:45:38;;;;;;;13.40;3.70;;;6.80;99.50;;;;;;5112456;28;20534;-44
2022/02/25 07:48:07;;;;;;;5.43;3.60;;;6.60;99.10;;;;;;5111928;28;20424;-46
2022/02/25 07:50:33;;;;;;;12.43;3.90;;;6.60;99.20;;;;;;5114030;28;20837;-45
2022/02/25 07:53:00;;;;;;;7.65;3.70;;;6.60;99.10;;;;;;5116358;28;20410;-43
2022/02/25 07:55:30;;;;;;;9.67;3.20;;;6.60;99.20;;;;;;5116364;28;20196;-43
2022/02/25 07:57:57;;;;;;;7.37;3.53;;;6.60;99.00;;;;;;5116660;28;20570;-43
2022/02/25 08:00:24;;;;;;;4.73;2.77;;;6.50;98.90;;;;;;5116564;28;20557;-42
2022/02/25 08:02:51;;;;;;;7.03;3.23;;;6.50;98.80;;;;;;5116387;28;20443;-42
2022/02/25 08:05:19;;;;;;;10.10;3.17;;;6.50;98.80;;;;;;5116508;28;20437;-43
2022/02/25 08:07:46;;;;;;;5.63;2.70;;;6.50;98.70;;;;;;5115957;28;20453;-44
2022/02/25 08:10:13;;;;;;;11.57;3.73;;;6.50;98.60;;;;;;5115697;28;20433;-42
2022/02/25 08:12:40;;;;;;;8.80;3.70;;;6.50;98.50;;;;;;5097333;28;20918;-43
2022/02/25 08:15:07;;;;;;;10.40;3.70;;;6.50;98.50;;;;;;5117081;28;20434;-44
2022/02/25 08:17:33;;;;;;;8.60;3.80;;;6.50;98.40;;;;;;5115432;28;20500;-44
2022/02/25 08:20:00;;;;;;;7.20;3.90;;;6.40;98.20;;;;;;5115221;28;20449;-44
2022/02/25 08:22:28;;;;;;;5.03;2.73;;;6.40;98.30;;;;;;5097608;28;20445;-43
2022/02/25 08:24:55;;;;;;;6.27;2.67;;;6.40;98.20;;;;;;5115564;28;20498;-44
2022/02/25 08:27:22;;;;;;;8.47;4.60;;;6.40;98.10;;;;;;5115820;28;20479;-45
2022/02/25 08:29:48;;;;;;;12.37;4.43;;;6.50;98.20;;;;;;5115279;28;20516;-45
2022/02/25 08:32:15;;;;;;;6.07;3.20;;;6.40;98.10;;;;;;5115244;28;20465;-43
2022/02/25 08:34:41;;;;;;;8.97;3.10;;;6.50;98.10;;;;;;5115966;28;20426;-43
2022/02/25 08:37:08;;;;;;;8.33;3.20;;;6.50;98.10;;;;;;5115721;28;20651;-42
2022/02/25 08:39:37;;;;;;;6.57;2.83;;;6.60;98.10;;;;;;5115064;28;20427;-44
2022/02/25 08:42:04;;;;;;;5.63;2.93;;;6.60;98.10;;;;;;5115196;28;20429;-44
2022/02/25 08:44:31;;;;;;;7.73;3.57;;;6.60;98.00;;;;;;5115163;28;20412;-45
2022/02/25 08:46:57;;;;;;;5.80;3.13;;;6.70;98.00;;;;;;5115457;28;20427;-45
2022/02/25 08:49:24;;;;;;;9.47;3.30;;;6.70;97.90;;;;;;5115111;28;20410;-44
2022/02/25 08:51:51;;;;;;;7.70;2.77;;;6.70;97.70;;;;;;5114812;28;20481;-45
2022/02/25 08:54:18;;;;;;;12.23;3.27;;;6.80;97.80;;;;;;5116430;28;20405;-43
2022/02/25 08:56:46;;;;;;;11.13;3.07;;;6.80;97.50;;;;;;5115575;28;20447;-41
2022/02/25 08:59:12;;;;;;;10.17;4.20;;;6.80;97.70;;;;;;5115074;28;20796;-44
2022/02/25 09:01:40;;;;;;;8.17;3.30;;;6.80;97.50;;;;;;5114535;28;20436;-44
2022/02/25 09:04:06;;;;;;;7.17;3.37;;;6.80;97.50;;;;;;5114296;28;20438;-44
2022/02/25 09:06:36;;;;;;;8.38;3.40;;;6.90;97.50;;;;;;5114146;28;20413;-45
2022/02/25 09:09:04;;;;;;;5.50;2.90;;;7.10;97.60;;;;;;5114202;28;20205;-43
2022/02/25 09:11:30;;;;;;;10.23;3.30;;;7.20;97.30;;;;;;5114399;28;20559;-44
2022/02/25 09:13:58;;;;;;;12.67;3.77;;;7.10;96.90;;;;;;5114651;28;20504;-43
2022/02/25 09:16:25;;;;;;;6.67;3.00;;;7.00;96.90;;;;;;5108425;28;20442;-42
2022/02/25 09:18:52;;;;;;;9.77;3.60;;;7.20;96.80;;;;;;5102812;28;20439;-44
2022/02/25 09:21:18;;;;;;;10.67;3.70;;;7.20;96.70;;;;;;5107798;28;20926;-44
2022/02/25 09:23:45;;;;;;;11.20;3.67;;;7.20;96.70;;;;;;5112747;28;20949;-45
2022/02/25 09:26:12;;;;;;;8.83;3.10;;;7.20;96.50;;;;;;5113372;28;20429;-46
2022/02/25 09:28:38;;;;;;;8.30;3.03;;;7.40;96.70;;;;;;5113125;28;20466;-44
2022/02/25 09:31:06;;;;;;;7.83;3.50;;;7.40;96.60;;;;;;5113309;28;20438;-43
2022/02/25 09:33:34;;;;;;;9.67;3.60;;;7.50;96.50;;;;;;5113203;28;20409;-42
2022/02/25 09:36:00;;;;;;;7.10;3.47;;;7.60;96.40;;;;;;5113749;28;20456;-43
2022/02/25 09:38:27;;;;;;;13.80;2.90;;;7.50;95.90;;;;;;5114247;28;20533;-45
2022/02/25 09:40:54;;;;;;;10.70;4.00;;;7.80;96.10;;;;;;5114682;28;20782;-43
2022/02/25 09:43:21;;;;;;;10.80;3.37;;;7.90;95.50;;;;;;5113714;28;20434;-43
2022/02/25 09:45:48;;;;;;;4.13;2.30;;;8.00;95.50;;;;;;5113716;28;20438;-44
2022/02/25 09:48:16;;;;;;;10.73;2.43;;;8.10;95.30;;;;;;5113487;28;20505;-45
2022/02/25 09:50:43;;;;;;;6.43;2.27;;;8.10;95.30;;;;;;5113097;28;20424;-44
2022/02/25 09:53:10;;;;;;;10.87;3.07;;;8.00;95.20;;;;;;5113613;28;20482;-43
2022/02/25 09:55:37;;;;;;;8.43;3.47;;;8.20;95.20;;;;;;5113488;28;20423;-44
2022/02/25 09:58:05;;;;;;;10.37;3.43;;;8.30;95.20;;;;;;5113555;28;20464;-43
2022/02/25 10:00:33;;;;;;;8.10;2.80;;;8.40;94.50;;;;;;5112867;28;20406;-44
2022/02/25 10:03:02;;;;;;;14.93;2.87;;;8.30;94.60;;;;;;5113466;28;20809;-44
2022/02/25 10:05:32;;;;;;;9.13;3.27;;;7.90;94.30;;;;;;5112962;28;20431;-42
2022/02/25 10:08:08;;;;;;;8.53;3.43;;;8.30;94.50;;;;;;5113039;28;20761;-43
2022/02/25 10:10:42;;;;;;;6.40;3.10;;;8.40;94.20;;;;;;5112906;28;20495;-43
2022/02/25 10:13:09;;;;;;;9.60;3.03;;;8.40;94.20;;;;;;5112101;28;20455;-44
2022/02/25 10:15:38;;;;;;;7.83;3.00;;;8.50;94.40;;;;;;5112920;28;20546;-44
2022/02/25 10:18:07;;;;;;;7.60;2.90;;;8.60;94.00;;;;;;5112451;28;20463;-43
2022/02/25 10:20:35;;;;;;;7.80;2.77;;;8.80;94.00;;;;;;5113579;28;20967;-43
2022/02/25 10:23:02;;;;;;;10.27;3.30;;;8.90;93.60;;;;;;5113418;28;20521;-43
2022/02/25 10:25:33;;;;;;;11.27;2.80;;;8.90;93.00;;;;;;5112723;28;20929;-43
2022/02/25 10:28:00;;;;;;;5.70;3.20;;;9.10;93.00;;;;;;5113132;28;20423;-42
2022/02/25 10:30:28;;;;;;;6.93;2.83;;;9.10;92.80;;;;;;5112813;28;20790;-41
2022/02/25 10:32:56;;;;;;;10.73;3.83;;;9.20;92.80;;;;;;5112831;28;20449;-41
2022/02/25 10:35:28;;;;;;;11.53;2.90;;;9.30;92.50;;;;;;5112701;28;20440;-44
2022/02/25 10:38:03;;;;;;;6.70;2.60;;;9.20;92.30;;;;;;5112729;28;20452;-44
2022/02/25 10:40:32;;;;;;;10.07;2.50;;;9.40;92.20;;;;;;5112347;28;20788;-46
2022/02/25 10:42:59;;;;;;;9.40;2.90;;;9.40;92.20;;;;;;5112869;28;20462;-43
2022/02/25 10:45:33;;;;;;;12.00;3.00;;;9.40;92.00;;;;;;5112405;28;20399;-43
2022/02/25 10:48:02;;;;;;;6.33;2.97;;;9.40;91.60;;;;;;5112304;28;20449;-42
2022/02/25 10:50:30;;;;;;;7.50;2.63;;;9.40;91.50;;;;;;5112513;28;20428;-43
2022/02/25 10:52:57;;;;;;;10.90;3.20;;;9.40;91.50;;;;;;5112640;28;20524;-43
2022/02/25 10:55:27;;;;;;;9.60;3.10;;;9.40;91.50;;;;;;5112290;28;20760;-42
2022/02/25 10:57:56;;;;;;;7.93;2.83;;;9.50;91.30;;;;;;5124028;22;20494;-47
2022/02/25 11:00:24;;;;;;;7.50;2.90;;;9.30;91.40;;;;;;5112023;28;20939;-48
2022/02/25 11:02:56;;;;;;;9.30;4.00;;;9.50;91.10;;;;;;5112919;28;20419;-48
2022/02/25 11:05:24;;;;;;;8.10;3.27;;;9.50;91.00;;;;;;5112102;28;20424;-48
2022/02/25 11:07:52;;;;;;;12.57;4.10;;;9.50;90.60;;;;;;5112811;28;20447;-48
2022/02/25 11:10:20;;;;;;;9.37;2.80;;;9.50;90.60;;;;;;5111889;28;20424;-48
2022/02/25 11:12:50;;;;;;;3.83;2.27;;;9.20;90.40;;;;;;5112365;28;20472;-48
2022/02/25 11:15:18;;;;;;;6.93;2.60;;;9.50;90.40;;;;;;5112379;28;20553;-47
2022/02/25 11:17:46;;;;;;;7.53;2.60;;;9.40;90.30;;;;;;5111754;28;20464;-47
2022/02/25 11:20:14;;;;;;;8.63;2.30;;;9.50;90.50;;;;;;5111883;28;20435;-46
2022/02/25 11:22:43;;;;;;;13.27;3.80;;;9.50;90.60;;;;;;5111951;28;20431;-49
2022/02/25 11:25:14;;;;;;;8.10;2.57;;;9.50;90.60;;;;;;5111223;28;20436;-48
2022/02/25 11:27:41;;;;;;;9.23;3.13;;;9.20;90.50;;;;;;5111048;28;20463;-47
2022/02/25 11:30:12;;;;;;;8.70;3.60;;;9.50;90.80;;;;;;5110474;28;20485;-49
2022/02/25 11:32:43;;;;;;;8.33;3.07;;;9.50;90.50;;;;;;5110988;28;20443;-48
2022/02/25 11:35:16;;;;;;;7.17;2.60;;;9.50;90.40;;;;;;5110935;28;20528;-49
2022/02/25 11:37:45;;;;;;;9.97;3.37;;;9.50;90.50;;;;;;5110598;28;20840;-49
2022/02/25 11:40:13;;;;;;;12.30;3.40;;;9.60;90.20;;;;;;5110741;28;20427;-48
2022/02/25 11:42:39;;;;;;;8.07;3.13;;;9.50;89.80;;;;;;5110205;28;20398;-48
2022/02/25 11:45:47;;;;;;;12.80;3.43;;;9.40;89.70;;;;;;5110987;28;20503;-48
2022/02/25 11:48:20;;;;;;;6.57;2.80;;;9.30;89.60;;;;;;5060180;28;20514;-49
2022/02/25 11:50:51;;;;;;;10.63;3.40;;;9.20;90.00;;;;;;5110161;28;20501;-47
2022/02/25 11:53:20;;;;;;;8.03;3.40;;;9.30;90.00;;;;;;5110800;28;20522;-48
2022/02/25 11:55:48;;;;;;;7.40;3.03;;;9.30;90.00;;;;;;5111046;28;20432;-48
2022/02/25 11:58:43;;;;;;;10.13;3.30;;;9.30;90.20;;;;;;5110703;28;20597;-48
2022/02/25 12:01:13;;;;;;;7.90;3.20;;;9.40;90.00;;;;;;5092766;28;20444;-49
2022/02/25 12:04:08;;;;;;;7.73;3.37;;;9.30;90.00;;;;;;5111150;28;20436;-49
2022/02/25 12:06:57;;;;;;;6.33;3.30;;;9.30;89.80;;;;;;5110696;28;20431;-48
2022/02/25 12:09:42;;;;;;;6.87;3.50;;;9.40;90.10;;;;;;5110552;28;20443;-48
2022/02/25 12:12:32;;;;;;;6.57;3.30;;;9.50;90.10;;;;;;5110541;28;20474;-49
2022/02/25 12:15:00;;;;;;;4.67;3.20;;;9.60;90.00;;;;;;5110969;28;20432;-48
2022/02/25 12:17:38;;;;;;;10.80;3.27;;;9.70;90.20;;;;;;5110358;28;20472;-49
2022/02/25 12:20:06;;;;;;;9.37;4.03;;;9.80;89.80;;;;;;5110094;28;20463;-49
2022/02/25 12:22:48;;;;;;;6.63;3.40;;;9.70;89.40;;;;;;5110324;28;20519;-49
2022/02/25 12:25:35;;;;;;;13.83;3.20;;;9.80;89.60;;;;;;5110552;28;20483;-49
2022/02/25 12:28:04;;;;;;;6.43;2.50;;;9.80;89.80;;;;;;5110218;28;20455;-48
2022/02/25 12:30:37;;;;;;;7.60;2.70;;;9.90;89.80;;;;;;5109985;28;20427;-48
2022/02/25 12:33:30;;;;;;;10.67;3.23;;;9.90;88.80;;;;;;5109984;28;20813;-46
2022/02/25 12:35:58;;;;;;;7.83;3.50;;;10.00;87.20;;;;;;5111465;28;20439;-47
2022/02/25 12:38:26;;;;;;;11.67;3.60;;;9.90;88.90;;;;;;5113884;28;21027;-47
2022/02/25 12:40:54;;;;;;;11.17;3.20;;;9.70;88.50;;;;;;5113874;28;20439;-49
2022/02/25 12:43:22;;;;;;;7.03;3.30;;;9.60;88.80;;;;;;5114144;28;20428;-48
2022/02/25 12:45:48;;;;;;;8.13;3.10;;;9.60;88.80;;;;;;5113993;28;20919;-48
2022/02/25 12:48:15;;;;;;;8.80;3.37;;;9.50;89.40;;;;;;5113865;28;20452;-48
2022/02/25 12:50:44;;;;;;;11.53;3.90;;;9.50;89.60;;;;;;5113990;28;20440;-48
2022/02/25 12:53:11;;;;;;;10.33;3.50;;;9.40;89.90;;;;;;5113985;28;20502;-47
2022/02/25 12:55:54;;;;;;;8.70;4.07;;;9.30;90.00;;;;;;5113821;28;20398;-47
2022/02/25 12:58:31;;;;;;;13.33;4.00;;;9.30;90.20;;;;;;5113820;28;20502;-49
2022/02/25 13:00:58;;;;;;;9.53;3.70;;;9.20;90.50;;;;;;5113510;28;20432;-48
2022/02/25 13:03:24;;;;;;;7.43;3.73;;;9.20;91.10;;;;;;5113397;28;20432;-50
2022/02/25 13:05:54;;;;;;;6.20;3.10;;;9.10;91.40;;;;;;5113564;28;20454;-49